Time;durP1;ratioP1;P1;durP2;ratioP2;P2;SDS_P1;SDS_P2;PMS_P1;PMS_P2;Temp;Humidity;BMP_temperature;BMP_pressure;BME280_temperature;BME280_humidity;BME280_pressure;Samples;Min_cycle;Max_cycle;Signal;HPM_P1;HPM_P2
2021/09/19 00:01:14;;;;;;;28.00;15.38;;;;;;;;;;5014326;28;20033;-73
2021/09/19 00:03:41;;;;;;;24.00;14.85;;;;;;;;;;5002436;28;20852;-73
2021/09/19 00:06:07;;;;;;;22.80;14.18;;;;;;;;;;5003695;28;20119;-73
2021/09/19 00:08:33;;;;;;;19.77;14.02;;;;;;;;;;5003512;28;20021;-74
2021/09/19 00:10:59;;;;;;;22.67;14.00;;;;;;;;;;4987835;28;20038;-73
2021/09/19 00:13:26;;;;;;;17.00;13.25;;;;;;;;;;5023311;28;20413;-73
2021/09/19 00:15:53;;;;;;;19.15;13.95;;;;;;;;;;5023259;28;20266;-73
2021/09/19 00:18:19;;;;;;;21.50;14.25;;;;;;;;;;5021639;28;20588;-73
2021/09/19 00:20:45;;;;;;;22.85;13.90;;;;;;;;;;5023164;28;20021;-73
2021/09/19 00:23:12;;;;;;;20.50;12.77;;;;;;;;;;5022710;28;20035;-73
2021/09/19 00:25:38;;;;;;;17.52;11.48;;;;;;;;;;5022466;28;20031;-73
2021/09/19 00:28:05;;;;;;;16.67;11.32;;;;;;;;;;5022439;28;20086;-74
2021/09/19 00:30:31;;;;;;;17.92;11.15;;;;;;;;;;5021216;28;20037;-74
2021/09/19 00:32:59;;;;;;;16.10;11.73;;;;;;;;;;5022738;28;20017;-74
2021/09/19 00:35:25;;;;;;;17.10;12.63;;;;;;;;;;5006997;28;20073;-73
2021/09/19 00:37:51;;;;;;;18.40;11.98;;;;;;;;;;5008865;28;20505;-73
2021/09/19 00:40:18;;;;;;;18.92;11.55;;;;;;;;;;5017367;28;20103;-73
2021/09/19 00:42:44;;;;;;;18.58;10.98;;;;;;;;;;5008590;28;20028;-73
2021/09/19 00:45:12;;;;;;;16.85;10.85;;;;;;;;;;5003601;28;20073;-73
2021/09/19 00:47:39;;;;;;;15.80;11.77;;;;;;;;;;5005112;28;20076;-73
2021/09/19 00:50:06;;;;;;;16.13;10.90;;;;;;;;;;5004972;28;20087;-75
2021/09/19 00:52:33;;;;;;;21.30;12.38;;;;;;;;;;5004851;28;20029;-73
2021/09/19 00:55:00;;;;;;;19.98;12.02;;;;;;;;;;5003899;28;20096;-73
2021/09/19 00:57:27;;;;;;;16.50;12.02;;;;;;;;;;5005123;28;20026;-74
2021/09/19 00:59:53;;;;;;;20.85;12.20;;;;;;;;;;5005038;28;20018;-73
2021/09/19 01:02:20;;;;;;;17.92;12.15;;;;;;;;;;5003387;28;20053;-74
2021/09/19 01:04:46;;;;;;;17.60;12.68;;;;;;;;;;5004831;28;20022;-74
2021/09/19 01:07:13;;;;;;;23.23;11.93;;;;;;;;;;5005133;28;20033;-73
2021/09/19 01:09:40;;;;;;;23.42;12.23;;;;;;;;;;5005078;28;20034;-73
2021/09/19 01:12:08;;;;;;;16.83;11.00;;;;;;;;;;5004203;28;20445;-74
2021/09/19 01:14:34;;;;;;;20.45;11.45;;;;;;;;;;5004375;28;20033;-73
2021/09/19 01:17:01;;;;;;;17.98;11.38;;;;;;;;;;5024316;28;20029;-75
2021/09/19 01:19:27;;;;;;;22.27;10.65;;;;;;;;;;5024431;28;20087;-74
2021/09/19 01:21:53;;;;;;;19.08;10.60;;;;;;;;;;5005230;28;20018;-73
2021/09/19 01:24:21;;;;;;;15.95;10.13;;;;;;;;;;5023954;28;20035;-73
2021/09/19 01:26:48;;;;;;;16.35;10.90;;;;;;;;;;5024378;28;20105;-73
2021/09/19 01:29:14;;;;;;;14.32;10.82;;;;;;;;;;5023992;28;20021;-74
2021/09/19 01:31:40;;;;;;;18.45;10.93;;;;;;;;;;5025973;28;20464;-73
2021/09/19 01:34:06;;;;;;;16.08;11.18;;;;;;;;;;5030800;28;20051;-74
2021/09/19 01:36:36;;;;;;;21.83;10.55;;;;;;;;;;5014746;28;20053;-73
2021/09/19 01:39:04;;;;;;;18.70;11.05;;;;;;;;;;5011243;28;20029;-73
2021/09/19 01:41:30;;;;;;;14.25;9.38;;;;;;;;;;5017380;28;20022;-74
2021/09/19 01:43:57;;;;;;;17.35;10.20;;;;;;;;;;5030281;28;20029;-73
2021/09/19 01:46:23;;;;;;;15.40;9.52;;;;;;;;;;5029222;28;20091;-73
2021/09/19 01:48:49;;;;;;;17.42;10.63;;;;;;;;;;5030560;28;20022;-75
2021/09/19 01:51:16;;;;;;;20.33;10.93;;;;;;;;;;5030502;28;20044;-73
2021/09/19 01:53:42;;;;;;;28.58;13.30;;;;;;;;;;5017321;28;20022;-73
2021/09/19 01:56:09;;;;;;;24.00;13.02;;;;;;;;;;5013395;28;20033;-73
2021/09/19 01:58:49;;;;;;;16.90;13.73;;;;;;;;;;5009858;28;20036;-73
2021/09/19 02:01:16;;;;;;;24.85;15.02;;;;;;;;;;5007075;28;20589;-74
2021/09/19 02:03:42;;;;;;;24.48;15.57;;;;;;;;;;5009014;28;20130;-73
2021/09/19 02:06:09;;;;;;;24.75;16.17;;;;;;;;;;5008429;28;20060;-73
2021/09/19 02:08:36;;;;;;;27.10;16.10;;;;;;;;;;5009167;28;20056;-74
2021/09/19 02:11:03;;;;;;;24.98;16.30;;;;;;;;;;5024853;28;20117;-73
2021/09/19 02:13:30;;;;;;;23.73;16.00;;;;;;;;;;5008866;28;20040;-74
2021/09/19 02:15:56;;;;;;;23.60;16.60;;;;;;;;;;5008176;28;20831;-75
2021/09/19 02:18:22;;;;;;;27.25;16.88;;;;;;;;;;5006718;28;20051;-73
2021/09/19 02:20:48;;;;;;;27.25;16.25;;;;;;;;;;5008713;28;20079;-73
2021/09/19 02:23:16;;;;;;;25.75;15.90;;;;;;;;;;5008706;28;20588;-73
2021/09/19 02:25:42;;;;;;;33.25;16.05;;;;;;;;;;5018337;28;20032;-73
2021/09/19 02:28:08;;;;;;;24.95;16.05;;;;;;;;;;5028279;28;20026;-73
2021/09/19 02:30:34;;;;;;;24.60;16.35;;;;;;;;;;5025993;28;20044;-74
2021/09/19 02:33:00;;;;;;;28.30;17.55;;;;;;;;;;5028052;28;20025;-74
2021/09/19 02:35:27;;;;;;;27.02;16.33;;;;;;;;;;5030430;28;20045;-73
2021/09/19 02:37:53;;;;;;;26.77;16.13;;;;;;;;;;5029164;28;20029;-72
2021/09/19 02:40:19;;;;;;;25.17;15.90;;;;;;;;;;5030100;28;20792;-73
2021/09/19 02:42:46;;;;;;;28.08;17.00;;;;;;;;;;5029418;28;20037;-73
2021/09/19 02:45:13;;;;;;;25.92;16.55;;;;;;;;;;5024963;28;20052;-73
2021/09/19 02:47:40;;;;;;;28.15;16.80;;;;;;;;;;5023323;28;20056;-73
2021/09/19 02:50:07;;;;;;;25.77;16.60;;;;;;;;;;5015270;28;20572;-75
2021/09/19 02:52:33;;;;;;;24.08;15.43;;;;;;;;;;5013569;28;20056;-74
2021/09/19 02:55:00;;;;;;;23.35;16.05;;;;;;;;;;5018596;28;20030;-73
2021/09/19 02:57:26;;;;;;;23.88;16.17;;;;;;;;;;5018262;28;20033;-73
2021/09/19 02:59:52;;;;;;;21.58;15.25;;;;;;;;;;5016050;28;20033;-73
2021/09/19 03:02:18;;;;;;;23.23;16.10;;;;;;;;;;5015861;28;20025;-73
2021/09/19 03:04:44;;;;;;;21.38;15.85;;;;;;;;;;5012569;28;20037;-74
2021/09/19 03:07:10;;;;;;;28.23;16.35;;;;;;;;;;5011745;28;20381;-73
2021/09/19 03:09:36;;;;;;;23.35;15.85;;;;;;;;;;5006289;28;20552;-73
2021/09/19 03:12:03;;;;;;;22.42;16.38;;;;;;;;;;5010435;28;20452;-73
2021/09/19 03:14:29;;;;;;;26.27;16.95;;;;;;;;;;5013279;28;20021;-73
2021/09/19 03:16:55;;;;;;;24.73;16.52;;;;;;;;;;5012269;28;20692;-73
2021/09/19 03:19:21;;;;;;;29.48;16.30;;;;;;;;;;5008142;28;20409;-73
2021/09/19 03:21:47;;;;;;;28.10;17.02;;;;;;;;;;4997933;28;20037;-73
2021/09/19 03:24:13;;;;;;;27.23;17.27;;;;;;;;;;5010166;28;20959;-73
2021/09/19 03:26:39;;;;;;;21.48;16.45;;;;;;;;;;5009266;28;20843;-74
2021/09/19 03:29:06;;;;;;;27.75;16.52;;;;;;;;;;5009187;28;20413;-73
2021/09/19 03:31:32;;;;;;;21.83;15.48;;;;;;;;;;5009151;28;20052;-73
2021/09/19 03:33:58;;;;;;;28.92;17.60;;;;;;;;;;5009671;28;20330;-74
2021/09/19 03:36:24;;;;;;;26.98;17.05;;;;;;;;;;5009101;28;20084;-73
2021/09/19 03:38:50;;;;;;;26.65;17.13;;;;;;;;;;5009488;28;20038;-74
2021/09/19 03:41:16;;;;;;;23.85;16.10;;;;;;;;;;5011091;28;20041;-74
2021/09/19 03:43:43;;;;;;;24.83;16.15;;;;;;;;;;5011230;28;20025;-74
2021/09/19 03:46:09;;;;;;;24.52;16.98;;;;;;;;;;5004290;28;20049;-74
2021/09/19 03:48:35;;;;;;;23.38;16.27;;;;;;;;;;5013358;28;20028;-74
2021/09/19 03:51:02;;;;;;;25.58;17.00;;;;;;;;;;5012544;28;20041;-73
2021/09/19 03:53:28;;;;;;;23.17;16.77;;;;;;;;;;5007646;28;20034;-73
2021/09/19 03:55:54;;;;;;;21.67;16.40;;;;;;;;;;5009019;28;20402;-73
2021/09/19 03:58:21;;;;;;;29.30;17.13;;;;;;;;;;5010532;28;20471;-74
2021/09/19 04:00:47;;;;;;;23.50;16.02;;;;;;;;;;5012857;28;20040;-74
2021/09/19 04:03:13;;;;;;;29.20;16.08;;;;;;;;;;5010751;28;20034;-73
2021/09/19 04:05:40;;;;;;;27.08;16.42;;;;;;;;;;5008980;28;20038;-74
2021/09/19 04:08:06;;;;;;;24.50;16.55;;;;;;;;;;5008559;28;20564;-73
2021/09/19 04:10:32;;;;;;;22.50;15.90;;;;;;;;;;5009828;28;20085;-73
2021/09/19 04:12:59;;;;;;;23.55;16.40;;;;;;;;;;5010609;28;20815;-73
2021/09/19 04:15:25;;;;;;;21.65;16.17;;;;;;;;;;5010691;28;20033;-73
2021/09/19 04:17:51;;;;;;;24.00;16.30;;;;;;;;;;5008491;28;20026;-73
2021/09/19 04:20:18;;;;;;;24.70;16.00;;;;;;;;;;5011908;28;20030;-73
2021/09/19 04:22:44;;;;;;;23.52;15.75;;;;;;;;;;5008687;28;20224;-73
2021/09/19 04:25:10;;;;;;;28.55;16.27;;;;;;;;;;5008201;28;20114;-75
2021/09/19 04:27:37;;;;;;;21.17;14.77;;;;;;;;;;5009005;28;20801;-73
2021/09/19 04:30:05;;;;;;;24.92;16.05;;;;;;;;;;5009120;28;20036;-73
2021/09/19 04:32:31;;;;;;;25.15;17.00;;;;;;;;;;5010556;28;20030;-73
2021/09/19 04:34:58;;;;;;;27.25;16.13;;;;;;;;;;5006977;28;20133;-73
2021/09/19 04:37:24;;;;;;;27.63;16.20;;;;;;;;;;5008125;28;20640;-73
2021/09/19 04:39:50;;;;;;;25.73;16.25;;;;;;;;;;5010600;28;20034;-73
2021/09/19 04:42:16;;;;;;;25.17;16.13;;;;;;;;;;5011428;28;20411;-73
2021/09/19 04:44:43;;;;;;;23.65;14.85;;;;;;;;;;5008168;28;20536;-73
2021/09/19 04:47:09;;;;;;;23.45;15.48;;;;;;;;;;5008934;28;20055;-73
2021/09/19 04:49:35;;;;;;;20.25;14.35;;;;;;;;;;5011056;28;20037;-74
2021/09/19 04:52:01;;;;;;;22.23;15.02;;;;;;;;;;5012618;28;20094;-73
2021/09/19 04:54:28;;;;;;;20.85;14.85;;;;;;;;;;5013459;28;20021;-73
2021/09/19 04:56:54;;;;;;;25.55;14.00;;;;;;;;;;5011251;28;20038;-73
2021/09/19 04:59:21;;;;;;;22.60;15.23;;;;;;;;;;5009172;28;20024;-74
2021/09/19 05:01:47;;;;;;;27.70;14.68;;;;;;;;;;4993700;28;20119;-73
2021/09/19 05:04:13;;;;;;;16.63;13.93;;;;;;;;;;5015420;28;20473;-74
2021/09/19 05:06:39;;;;;;;17.73;14.73;;;;;;;;;;5009527;28;20465;-74
2021/09/19 05:09:05;;;;;;;20.58;14.60;;;;;;;;;;5012232;28;20028;-74
2021/09/19 05:11:31;;;;;;;19.55;14.35;;;;;;;;;;5013775;28;20029;-73
2021/09/19 05:13:57;;;;;;;22.15;14.32;;;;;;;;;;5010568;28;20033;-74
2021/09/19 05:16:24;;;;;;;17.45;13.85;;;;;;;;;;5010255;28;20022;-74
2021/09/19 05:18:50;;;;;;;22.83;14.38;;;;;;;;;;5010967;28;20026;-73
2021/09/19 05:21:16;;;;;;;22.88;14.68;;;;;;;;;;5012310;28;20033;-74
2021/09/19 05:23:42;;;;;;;20.50;13.73;;;;;;;;;;5012664;28;20025;-74
2021/09/19 05:26:08;;;;;;;23.85;14.52;;;;;;;;;;5009923;28;20025;-73
2021/09/19 05:28:34;;;;;;;25.13;13.82;;;;;;;;;;5013339;28;20029;-73
2021/09/19 05:31:00;;;;;;;21.65;13.95;;;;;;;;;;4992606;28;20045;-73
2021/09/19 05:33:26;;;;;;;22.50;15.02;;;;;;;;;;5012994;28;20025;-74
2021/09/19 05:35:53;;;;;;;26.13;15.68;;;;;;;;;;5012101;28;20041;-73
2021/09/19 05:38:19;;;;;;;24.38;15.50;;;;;;;;;;5009755;28;20037;-73
2021/09/19 05:40:45;;;;;;;20.95;15.15;;;;;;;;;;5008309;28;20028;-74
2021/09/19 05:43:11;;;;;;;28.52;16.17;;;;;;;;;;5009796;28;20014;-74
2021/09/19 05:45:38;;;;;;;27.08;16.50;;;;;;;;;;5009202;28;20052;-74
2021/09/19 05:48:04;;;;;;;32.03;16.35;;;;;;;;;;4993966;28;20084;-74
2021/09/19 05:50:30;;;;;;;32.28;17.42;;;;;;;;;;5011209;28;20074;-73
2021/09/19 05:52:56;;;;;;;26.75;16.48;;;;;;;;;;5009710;28;20441;-74
2021/09/19 05:55:23;;;;;;;24.90;16.42;;;;;;;;;;5006377;28;20036;-74
2021/09/19 05:57:49;;;;;;;24.60;15.52;;;;;;;;;;5007405;28;20033;-74
2021/09/19 06:00:15;;;;;;;27.27;16.00;;;;;;;;;;5010124;28;20025;-74
2021/09/19 06:02:41;;;;;;;23.05;15.35;;;;;;;;;;5009006;28;20022;-74
2021/09/19 06:05:08;;;;;;;22.17;14.93;;;;;;;;;;5008792;28;20060;-74
2021/09/19 06:07:34;;;;;;;20.75;15.98;;;;;;;;;;5007606;28;20183;-74
2021/09/19 06:10:00;;;;;;;22.80;14.88;;;;;;;;;;5005355;28;20145;-73
2021/09/19 06:12:26;;;;;;;21.08;15.02;;;;;;;;;;5008916;28;20025;-74
2021/09/19 06:14:53;;;;;;;30.85;15.85;;;;;;;;;;4992355;28;20040;-74
2021/09/19 06:17:20;;;;;;;21.23;15.52;;;;;;;;;;5007734;28;20029;-73
2021/09/19 06:19:50;;;;;;;27.42;16.67;;;;;;;;;;5011167;28;20057;-74
2021/09/19 06:22:16;;;;;;;24.98;16.42;;;;;;;;;;5013297;28;20137;-73
2021/09/19 06:24:42;;;;;;;21.27;15.10;;;;;;;;;;5012411;28;20358;-74
2021/09/19 06:27:12;;;;;;;25.45;16.02;;;;;;;;;;5010205;28;20620;-74
2021/09/19 06:29:38;;;;;;;24.73;16.05;;;;;;;;;;5014387;28;20033;-74
2021/09/19 06:32:04;;;;;;;25.45;16.27;;;;;;;;;;5006015;28;20034;-74
2021/09/19 06:34:30;;;;;;;24.25;16.83;;;;;;;;;;5012420;28;20037;-74
2021/09/19 06:36:56;;;;;;;24.77;15.93;;;;;;;;;;5013892;28;20034;-74
2021/09/19 06:39:23;;;;;;;23.90;16.80;;;;;;;;;;5011306;28;20025;-74
2021/09/19 06:41:51;;;;;;;19.88;16.00;;;;;;;;;;5008808;28;20030;-74
2021/09/19 06:44:17;;;;;;;21.23;16.85;;;;;;;;;;5011760;28;20057;-74
2021/09/19 06:46:43;;;;;;;19.90;16.50;;;;;;;;;;5013909;28;20533;-74
2021/09/19 06:49:10;;;;;;;21.85;16.50;;;;;;;;;;5012169;28;20823;-74
2021/09/19 06:51:36;;;;;;;22.27;16.05;;;;;;;;;;5012621;28;20043;-74
2021/09/19 06:54:02;;;;;;;23.88;16.48;;;;;;;;;;5014009;28;20040;-74
2021/09/19 06:56:28;;;;;;;24.83;16.42;;;;;;;;;;4991786;28;20228;-74
2021/09/19 06:58:56;;;;;;;19.50;16.02;;;;;;;;;;5011327;28;20497;-73
2021/09/19 07:01:22;;;;;;;16.55;14.88;;;;;;;;;;5026656;28;20043;-74
2021/09/19 07:03:49;;;;;;;25.00;16.83;;;;;;;;;;5013512;28;20031;-74
2021/09/19 07:06:16;;;;;;;22.95;15.50;;;;;;;;;;5017476;28;20039;-75
2021/09/19 07:08:44;;;;;;;23.25;16.23;;;;;;;;;;5008484;28;20037;-74
2021/09/19 07:11:11;;;;;;;21.73;16.33;;;;;;;;;;5008621;28;20054;-74
2021/09/19 07:13:37;;;;;;;28.25;16.35;;;;;;;;;;5012099;28;20363;-74
2021/09/19 07:16:03;;;;;;;24.98;16.27;;;;;;;;;;5016611;28;20083;-76
2021/09/19 07:18:29;;;;;;;25.83;17.17;;;;;;;;;;5014864;28;20556;-75
2021/09/19 07:20:56;;;;;;;19.98;15.25;;;;;;;;;;5009289;28;20374;-74
2021/09/19 07:23:23;;;;;;;24.95;16.38;;;;;;;;;;5020496;28;20057;-76
2021/09/19 07:25:49;;;;;;;20.38;14.27;;;;;;;;;;5008642;28;20094;-75
2021/09/19 07:28:16;;;;;;;19.10;15.90;;;;;;;;;;5009871;28;20421;-74
2021/09/19 07:30:42;;;;;;;28.50;15.85;;;;;;;;;;5014301;28;20049;-75
2021/09/19 07:33:08;;;;;;;26.58;14.55;;;;;;;;;;5010962;28;20028;-76
2021/09/19 07:35:35;;;;;;;17.38;13.98;;;;;;;;;;5007113;28;20108;-75
2021/09/19 07:38:01;;;;;;;24.35;14.90;;;;;;;;;;4995102;28;20785;-74
2021/09/19 07:40:28;;;;;;;22.23;14.63;;;;;;;;;;5007420;28;20037;-75
2021/09/19 07:42:54;;;;;;;18.10;13.07;;;;;;;;;;5004393;28;20032;-76
2021/09/19 07:45:20;;;;;;;18.90;12.98;;;;;;;;;;5009955;28;20129;-74
2021/09/19 07:47:47;;;;;;;17.98;13.52;;;;;;;;;;5017573;28;20186;-75
2021/09/19 07:50:14;;;;;;;19.83;13.02;;;;;;;;;;5013130;28;20064;-76
2021/09/19 07:52:40;;;;;;;21.23;12.98;;;;;;;;;;5014480;28;20504;-75
2021/09/19 07:55:06;;;;;;;23.73;13.75;;;;;;;;;;5014668;28;20032;-75
2021/09/19 07:57:33;;;;;;;21.92;13.13;;;;;;;;;;5014823;28;20055;-74
2021/09/19 07:59:59;;;;;;;16.98;11.73;;;;;;;;;;5009574;28;20121;-75
2021/09/19 08:02:25;;;;;;;17.88;11.95;;;;;;;;;;5007012;28;20025;-74
2021/09/19 08:04:51;;;;;;;17.90;11.88;;;;;;;;;;5010977;28;20038;-75
2021/09/19 08:07:20;;;;;;;24.98;13.55;;;;;;;;;;5007382;28;20026;-75
2021/09/19 08:09:47;;;;;;;23.95;12.25;;;;;;;;;;5005956;28;20375;-74
2021/09/19 08:12:13;;;;;;;18.30;12.52;;;;;;;;;;5010481;28;20017;-75
2021/09/19 08:14:39;;;;;;;23.02;12.38;;;;;;;;;;5010279;28;20074;-76
2021/09/19 08:17:06;;;;;;;19.08;12.40;;;;;;;;;;5010509;28;20036;-75
2021/09/19 08:19:32;;;;;;;20.10;11.88;;;;;;;;;;5011457;28;20064;-74
2021/09/19 08:21:58;;;;;;;21.70;11.85;;;;;;;;;;5010316;28;20095;-76
2021/09/19 08:24:24;;;;;;;16.13;11.38;;;;;;;;;;5004802;28;20026;-75
2021/09/19 08:26:50;;;;;;;16.92;11.07;;;;;;;;;;5008839;28;20421;-75
2021/09/19 08:29:17;;;;;;;17.60;12.15;;;;;;;;;;5009515;28;20017;-75
2021/09/19 08:31:43;;;;;;;17.85;11.88;;;;;;;;;;5012691;28;20614;-75
2021/09/19 08:34:09;;;;;;;20.50;11.95;;;;;;;;;;5010798;28;20086;-75
2021/09/19 08:36:37;;;;;;;20.83;12.25;;;;;;;;;;5000088;28;20770;-76
2021/09/19 08:39:04;;;;;;;23.02;11.85;;;;;;;;;;5008865;28;20034;-76
2021/09/19 08:41:30;;;;;;;15.18;11.23;;;;;;;;;;5017880;28;20033;-75
2021/09/19 08:43:57;;;;;;;21.27;12.50;;;;;;;;;;4999101;28;20811;-75
2021/09/19 08:46:24;;;;;;;18.63;12.18;;;;;;;;;;4999979;28;20049;-75
2021/09/19 08:48:51;;;;;;;17.88;12.02;;;;;;;;;;5005320;28;20044;-75
2021/09/19 08:51:17;;;;;;;19.27;11.75;;;;;;;;;;5012718;28;20584;-74
2021/09/19 08:53:43;;;;;;;18.50;12.25;;;;;;;;;;5013567;28;20032;-73
2021/09/19 08:56:09;;;;;;;18.15;11.30;;;;;;;;;;5008967;28;20430;-74
2021/09/19 08:58:39;;;;;;;19.73;12.23;;;;;;;;;;5011262;28;20028;-76
2021/09/19 09:01:06;;;;;;;14.93;11.35;;;;;;;;;;5009129;28;20025;-76
2021/09/19 09:03:32;;;;;;;18.95;11.90;;;;;;;;;;5009853;28;20087;-75
2021/09/19 09:06:03;;;;;;;17.35;11.45;;;;;;;;;;5009925;28;20100;-75
2021/09/19 09:08:30;;;;;;;17.95;12.27;;;;;;;;;;5005239;28;20616;-74
2021/09/19 09:10:59;;;;;;;21.52;12.75;;;;;;;;;;5008518;28;20038;-75
2021/09/19 09:13:31;;;;;;;21.02;12.32;;;;;;;;;;5005173;28;20022;-75
2021/09/19 09:16:17;;;;;;;22.63;13.05;;;;;;;;;;5010445;28;20037;-75
2021/09/19 09:18:52;;;;;;;15.13;11.50;;;;;;;;;;5007395;28;20026;-75
2021/09/19 09:21:19;;;;;;;28.77;12.50;;;;;;;;;;5007862;28;20044;-75
2021/09/19 09:23:50;;;;;;;20.77;11.63;;;;;;;;;;5010631;28;20025;-75
2021/09/19 09:26:27;;;;;;;22.88;12.35;;;;;;;;;;5008533;28;20042;-75
2021/09/19 09:29:04;;;;;;;18.83;12.07;;;;;;;;;;5006525;28;20034;-75
2021/09/19 09:31:30;;;;;;;18.90;12.75;;;;;;;;;;5014563;28;20064;-75
2021/09/19 09:33:57;;;;;;;16.63;13.10;;;;;;;;;;5005850;28;20855;-74
2021/09/19 09:36:42;;;;;;;21.73;13.50;;;;;;;;;;5007582;28;20048;-75
2021/09/19 09:39:29;;;;;;;17.23;12.15;;;;;;;;;;5013248;28;20499;-75
2021/09/19 09:41:57;;;;;;;26.23;13.63;;;;;;;;;;4996000;28;20044;-75
2021/09/19 09:44:35;;;;;;;18.63;12.23;;;;;;;;;;4999254;28;20492;-74
2021/09/19 09:47:03;;;;;;;23.58;13.07;;;;;;;;;;5001223;28;20482;-74
2021/09/19 09:49:35;;;;;;;21.00;12.95;;;;;;;;;;5014864;28;20044;-74
2021/09/19 09:52:34;;;;;;;19.10;12.07;;;;;;;;;;5005825;28;20026;-74
2021/09/19 09:55:04;;;;;;;15.05;11.40;;;;;;;;;;4972456;28;20129;-75
2021/09/19 09:57:31;;;;;;;15.82;12.05;;;;;;;;;;5009983;28;20065;-74
2021/09/19 09:59:59;;;;;;;20.63;12.65;;;;;;;;;;5020118;28;20036;-73
2021/09/19 10:02:26;;;;;;;19.17;13.23;;;;;;;;;;5020623;28;20025;-74
2021/09/19 10:04:54;;;;;;;18.70;13.25;;;;;;;;;;5006431;28;20037;-75
2021/09/19 10:07:20;;;;;;;17.60;12.73;;;;;;;;;;5003447;28;20174;-75
2021/09/19 10:09:46;;;;;;;22.63;14.07;;;;;;;;;;5017106;28;20033;-74
2021/09/19 10:12:13;;;;;;;28.05;14.10;;;;;;;;;;5013925;28;20036;-75
2021/09/19 10:14:39;;;;;;;18.98;13.32;;;;;;;;;;5010650;28;20044;-74
2021/09/19 10:17:05;;;;;;;17.85;12.38;;;;;;;;;;5007585;28;20036;-74
2021/09/19 10:19:32;;;;;;;23.75;12.70;;;;;;;;;;5011947;28;20029;-75
2021/09/19 10:21:59;;;;;;;17.67;12.18;;;;;;;;;;5011299;28;20034;-74
2021/09/19 10:24:26;;;;;;;16.08;12.43;;;;;;;;;;5010921;28;20030;-74
2021/09/19 10:26:53;;;;;;;17.05;12.13;;;;;;;;;;5011960;28;20064;-74
2021/09/19 10:29:20;;;;;;;22.42;11.82;;;;;;;;;;4992803;28;20022;-74
2021/09/19 10:31:46;;;;;;;20.50;12.40;;;;;;;;;;5012400;28;20042;-74
2021/09/19 10:34:24;;;;;;;23.42;12.68;;;;;;;;;;5013718;28;20018;-74
2021/09/19 10:36:52;;;;;;;22.70;12.70;;;;;;;;;;5010748;28;20120;-74
2021/09/19 10:39:20;;;;;;;16.92;11.85;;;;;;;;;;5010410;28;20026;-74
2021/09/19 10:42:05;;;;;;;17.75;12.13;;;;;;;;;;5009303;28;20040;-75
2021/09/19 10:44:53;;;;;;;18.45;12.52;;;;;;;;;;5006334;28;20173;-73
2021/09/19 10:47:28;;;;;;;21.20;12.80;;;;;;;;;;5010631;28;20045;-73
2021/09/19 10:50:12;;;;;;;16.02;11.00;;;;;;;;;;5010025;28;20037;-75
2021/09/19 10:52:42;;;;;;;17.60;12.10;;;;;;;;;;5012189;28;20029;-75
2021/09/19 10:55:25;;;;;;;16.63;11.55;;;;;;;;;;5011391;28;20042;-74
2021/09/19 10:57:55;;;;;;;18.67;12.30;;;;;;;;;;5015515;28;20036;-73
2021/09/19 11:00:21;;;;;;;23.10;13.85;;;;;;;;;;5009318;28;20025;-75
2021/09/19 11:03:06;;;;;;;21.13;12.73;;;;;;;;;;5009260;28;20433;-75
2021/09/19 11:05:33;;;;;;;17.52;13.02;;;;;;;;;;5011578;28;20409;-75
2021/09/19 11:08:08;;;;;;;17.08;12.65;;;;;;;;;;5011394;28;20032;-74
2021/09/19 11:10:58;;;;;;;17.02;11.73;;;;;;;;;;5008270;28;20041;-74
2021/09/19 11:13:29;;;;;;;16.48;11.98;;;;;;;;;;4998459;28;20045;-74
2021/09/19 11:16:04;;;;;;;17.00;12.45;;;;;;;;;;5012737;28;20041;-75
2021/09/19 11:18:33;;;;;;;18.25;12.73;;;;;;;;;;5011570;28;20030;-75
2021/09/19 11:21:28;;;;;;;18.65;13.02;;;;;;;;;;5013230;28;20033;-74
2021/09/19 11:23:57;;;;;;;18.67;12.73;;;;;;;;;;4995126;28;20073;-74
2021/09/19 11:26:24;;;;;;;16.00;12.35;;;;;;;;;;5009961;28;20025;-75
2021/09/19 11:28:51;;;;;;;18.00;11.75;;;;;;;;;;5009841;28;20401;-75
2021/09/19 11:31:18;;;;;;;16.88;12.98;;;;;;;;;;5012254;28;20041;-74
2021/09/19 11:33:45;;;;;;;18.67;12.88;;;;;;;;;;5010315;28;20032;-75
2021/09/19 11:36:13;;;;;;;19.67;12.60;;;;;;;;;;5009485;28;20030;-73
2021/09/19 11:38:40;;;;;;;20.35;12.55;;;;;;;;;;5009108;28;20430;-74
2021/09/19 11:41:07;;;;;;;23.52;13.45;;;;;;;;;;5008369;28;20065;-75
2021/09/19 11:43:35;;;;;;;17.02;12.60;;;;;;;;;;5010127;28;20030;-76
2021/09/19 11:46:01;;;;;;;19.42;13.07;;;;;;;;;;5008562;28;20053;-75
2021/09/19 11:48:29;;;;;;;21.25;12.98;;;;;;;;;;5003633;28;20030;-76
2021/09/19 11:50:56;;;;;;;22.88;13.07;;;;;;;;;;5018958;28;20422;-76
2021/09/19 11:53:22;;;;;;;17.17;12.45;;;;;;;;;;5018757;28;20021;-74
2021/09/19 11:55:48;;;;;;;19.88;13.20;;;;;;;;;;5018102;28;20029;-74
2021/09/19 11:58:18;;;;;;;16.23;12.07;;;;;;;;;;5010499;28;20095;-73
2021/09/19 12:00:46;;;;;;;21.38;12.80;;;;;;;;;;5008917;28;20068;-75
2021/09/19 12:03:13;;;;;;;18.30;13.18;;;;;;;;;;5008404;28;20520;-75
2021/09/19 12:05:39;;;;;;;20.92;13.27;;;;;;;;;;5014743;28;20064;-74
2021/09/19 12:08:06;;;;;;;21.92;13.23;;;;;;;;;;5020384;28;20036;-74
2021/09/19 12:10:33;;;;;;;23.92;15.45;;;;;;;;;;5017878;28;20044;-74
2021/09/19 12:12:59;;;;;;;19.65;13.40;;;;;;;;;;5019505;28;20360;-76
2021/09/19 12:15:29;;;;;;;19.58;12.85;;;;;;;;;;5017372;28;20017;-76
2021/09/19 12:18:04;;;;;;;21.45;13.02;;;;;;;;;;5019321;28;20108;-75
2021/09/19 12:20:31;;;;;;;25.30;13.93;;;;;;;;;;5017808;28;20036;-75
2021/09/19 12:23:17;;;;;;;20.48;11.98;;;;;;;;;;5019700;28;20021;-75
2021/09/19 12:25:47;;;;;;;16.10;12.07;;;;;;;;;;5017607;28;20791;-75
2021/09/19 12:28:27;;;;;;;12.75;11.48;;;;;;;;;;5016567;28;20029;-73
2021/09/19 12:30:53;;;;;;;17.85;12.05;;;;;;;;;;5019120;28;20651;-73
2021/09/19 12:33:19;;;;;;;19.20;12.82;;;;;;;;;;5001530;28;20037;-76
2021/09/19 12:35:45;;;;;;;15.88;12.15;;;;;;;;;;5021970;28;20034;-75
2021/09/19 12:38:13;;;;;;;21.27;12.43;;;;;;;;;;5020897;28;20068;-75
2021/09/19 12:40:40;;;;;;;19.27;12.63;;;;;;;;;;5012094;28;20021;-73
2021/09/19 12:43:14;;;;;;;23.52;13.02;;;;;;;;;;5002191;28;20030;-75
2021/09/19 12:45:48;;;;;;;21.67;12.52;;;;;;;;;;5013783;28;20049;-74
2021/09/19 12:48:14;;;;;;;19.88;13.00;;;;;;;;;;5021422;28;20021;-75
2021/09/19 12:50:40;;;;;;;16.77;12.25;;;;;;;;;;5020905;28;20042;-74
2021/09/19 12:53:06;;;;;;;20.60;12.30;;;;;;;;;;5019839;28;20108;-74
2021/09/19 12:55:33;;;;;;;18.55;12.13;;;;;;;;;;5020809;28;20052;-76
2021/09/19 12:57:59;;;;;;;23.95;12.20;;;;;;;;;;5021799;28;20310;-75
2021/09/19 13:00:27;;;;;;;17.48;12.32;;;;;;;;;;5021244;28;20049;-76
2021/09/19 13:03:04;;;;;;;26.20;12.57;;;;;;;;;;5019823;28;20179;-75
2021/09/19 13:05:31;;;;;;;15.55;12.27;;;;;;;;;;5021268;28;20025;-74
2021/09/19 13:07:57;;;;;;;16.42;12.20;;;;;;;;;;5021680;28;20025;-75
2021/09/19 13:10:24;;;;;;;16.13;12.85;;;;;;;;;;5021144;28;20612;-76
2021/09/19 13:12:50;;;;;;;15.55;11.70;;;;;;;;;;5002498;28;20028;-74
2021/09/19 13:15:19;;;;;;;18.35;12.35;;;;;;;;;;5014344;28;20061;-77
2021/09/19 13:17:46;;;;;;;17.95;13.20;;;;;;;;;;5016731;28;20072;-76
2021/09/19 13:20:12;;;;;;;22.25;13.55;;;;;;;;;;5019411;28;20014;-75
2021/09/19 13:22:39;;;;;;;19.40;12.45;;;;;;;;;;5020437;28;20223;-76
2021/09/19 13:25:05;;;;;;;18.02;13.30;;;;;;;;;;5018943;28;20032;-76
2021/09/19 13:27:31;;;;;;;17.67;12.07;;;;;;;;;;5016624;28;20032;-76
2021/09/19 13:29:58;;;;;;;15.63;13.00;;;;;;;;;;5020580;28;20022;-76
2021/09/19 13:32:24;;;;;;;26.95;13.52;;;;;;;;;;5020903;28;20028;-76
2021/09/19 13:34:50;;;;;;;19.27;12.20;;;;;;;;;;5017292;28;20026;-76
2021/09/19 13:37:16;;;;;;;16.65;12.98;;;;;;;;;;5015820;28;20030;-76
2021/09/19 13:39:43;;;;;;;16.52;12.43;;;;;;;;;;4995661;28;20036;-76
2021/09/19 13:42:09;;;;;;;20.15;12.70;;;;;;;;;;5018726;28;20053;-76
2021/09/19 13:44:35;;;;;;;18.25;12.77;;;;;;;;;;5020233;28;20033;-75
2021/09/19 13:47:01;;;;;;;19.92;12.50;;;;;;;;;;5020624;28;20509;-75
2021/09/19 13:49:27;;;;;;;18.08;13.43;;;;;;;;;;5020412;28;20495;-75
2021/09/19 13:51:54;;;;;;;17.98;12.13;;;;;;;;;;5020371;28;20037;-75
2021/09/19 13:54:21;;;;;;;18.65;11.77;;;;;;;;;;5019886;28;20083;-75
2021/09/19 13:56:50;;;;;;;18.52;12.25;;;;;;;;;;5019414;28;20552;-76
2021/09/19 13:59:21;;;;;;;22.75;13.05;;;;;;;;;;5020397;28;20201;-76
2021/09/19 14:01:49;;;;;;;18.60;12.00;;;;;;;;;;5002927;28;20489;-75
2021/09/19 14:04:15;;;;;;;17.90;13.23;;;;;;;;;;5019937;28;20044;-76
2021/09/19 14:06:42;;;;;;;29.73;13.80;;;;;;;;;;5020270;28;20061;-76
2021/09/19 14:09:08;;;;;;;20.70;13.52;;;;;;;;;;5018243;28;20026;-76
2021/09/19 14:11:35;;;;;;;21.13;13.73;;;;;;;;;;5019082;28;20493;-75
2021/09/19 14:14:01;;;;;;;37.75;14.98;;;;;;;;;;5019524;28;20025;-76
2021/09/19 14:16:28;;;;;;;30.05;14.70;;;;;;;;;;5020024;28;20041;-77
2021/09/19 14:18:54;;;;;;;25.23;13.68;;;;;;;;;;5018049;28;20025;-76